sensor_id;sensor_type;location;lat;lon;timestamp;P1;durP1;ratioP1;P2;durP2;ratioP2
36653;SDS011;22650;49.350;20.898;2023-08-06T00:02:12;513.67;;;201.43;;
36653;SDS011;22650;49.350;20.898;2023-08-06T00:04:46;584.45;;;232.55;;
36653;SDS011;22650;49.350;20.898;2023-08-06T00:07:20;498.67;;;221.82;;
36653;SDS011;22650;49.350;20.898;2023-08-06T00:09:53;587.03;;;243.35;;
36653;SDS011;22650;49.350;20.898;2023-08-06T00:12:27;614.92;;;245.05;;
36653;SDS011;22650;49.350;20.898;2023-08-06T00:15:02;467.40;;;214.98;;
36653;SDS011;22650;49.350;20.898;2023-08-06T00:17:36;498.38;;;211.25;;
36653;SDS011;22650;49.350;20.898;2023-08-06T00:20:10;546.67;;;241.93;;
36653;SDS011;22650;49.350;20.898;2023-08-06T00:22:44;626.42;;;236.25;;
36653;SDS011;22650;49.350;20.898;2023-08-06T00:25:18;502.92;;;231.40;;
36653;SDS011;22650;49.350;20.898;2023-08-06T00:27:51;456.48;;;218.60;;
36653;SDS011;22650;49.350;20.898;2023-08-06T00:30:26;559.50;;;224.65;;
36653;SDS011;22650;49.350;20.898;2023-08-06T00:33:00;567.67;;;244.50;;
36653;SDS011;22650;49.350;20.898;2023-08-06T00:35:33;583.25;;;226.23;;
36653;SDS011;22650;49.350;20.898;2023-08-06T00:38:07;468.58;;;213.70;;
36653;SDS011;22650;49.350;20.898;2023-08-06T00:40:40;570.78;;;254.90;;
36653;SDS011;22650;49.350;20.898;2023-08-06T00:43:15;635.60;;;236.02;;
36653;SDS011;22650;49.350;20.898;2023-08-06T00:45:50;620.65;;;248.38;;
36653;SDS011;22650;49.350;20.898;2023-08-06T00:48:24;595.72;;;235.30;;
36653;SDS011;22650;49.350;20.898;2023-08-06T00:50:57;679.95;;;279.67;;
36653;SDS011;22650;49.350;20.898;2023-08-06T00:53:31;773.78;;;308.35;;
36653;SDS011;22650;49.350;20.898;2023-08-06T00:56:05;710.15;;;306.70;;
36653;SDS011;22650;49.350;20.898;2023-08-06T00:58:39;815.33;;;336.10;;
36653;SDS011;22650;49.350;20.898;2023-08-06T01:01:14;762.05;;;296.98;;
36653;SDS011;22650;49.350;20.898;2023-08-06T01:03:48;807.58;;;332.65;;
36653;SDS011;22650;49.350;20.898;2023-08-06T01:06:26;656.05;;;292.73;;
36653;SDS011;22650;49.350;20.898;2023-08-06T01:09:11;679.03;;;272.40;;
36653;SDS011;22650;49.350;20.898;2023-08-06T01:11:59;756.92;;;335.77;;
36653;SDS011;22650;49.350;20.898;2023-08-06T01:14:42;837.20;;;334.08;;
36653;SDS011;22650;49.350;20.898;2023-08-06T01:17:25;751.33;;;304.90;;
36653;SDS011;22650;49.350;20.898;2023-08-06T01:20:00;721.97;;;285.35;;
36653;SDS011;22650;49.350;20.898;2023-08-06T01:22:35;689.60;;;274.30;;
36653;SDS011;22650;49.350;20.898;2023-08-06T01:25:09;708.75;;;274.70;;
36653;SDS011;22650;49.350;20.898;2023-08-06T01:27:43;776.50;;;299.13;;
36653;SDS011;22650;49.350;20.898;2023-08-06T01:30:22;794.88;;;297.30;;
36653;SDS011;22650;49.350;20.898;2023-08-06T01:33:00;718.60;;;273.52;;
36653;SDS011;22650;49.350;20.898;2023-08-06T01:35:37;741.13;;;272.17;;
36653;SDS011;22650;49.350;20.898;2023-08-06T01:38:13;668.80;;;260.50;;
36653;SDS011;22650;49.350;20.898;2023-08-06T01:40:46;660.88;;;265.75;;
36653;SDS011;22650;49.350;20.898;2023-08-06T01:43:20;470.52;;;207.93;;
36653;SDS011;22650;49.350;20.898;2023-08-06T01:45:54;454.60;;;179.05;;
36653;SDS011;22650;49.350;20.898;2023-08-06T01:48:28;411.02;;;186.20;;
36653;SDS011;22650;49.350;20.898;2023-08-06T01:51:03;478.70;;;193.40;;
36653;SDS011;22650;49.350;20.898;2023-08-06T01:53:39;391.45;;;172.13;;
36653;SDS011;22650;49.350;20.898;2023-08-06T01:56:12;425.73;;;178.10;;
36653;SDS011;22650;49.350;20.898;2023-08-06T01:58:46;339.90;;;166.57;;
36653;SDS011;22650;49.350;20.898;2023-08-06T02:01:19;381.33;;;164.57;;
36653;SDS011;22650;49.350;20.898;2023-08-06T02:03:53;382.58;;;163.65;;
36653;SDS011;22650;49.350;20.898;2023-08-06T02:06:27;410.83;;;165.88;;
36653;SDS011;22650;49.350;20.898;2023-08-06T02:09:02;339.80;;;149.88;;
36653;SDS011;22650;49.350;20.898;2023-08-06T02:11:35;391.77;;;174.65;;
36653;SDS011;22650;49.350;20.898;2023-08-06T02:14:09;354.88;;;161.63;;
36653;SDS011;22650;49.350;20.898;2023-08-06T02:16:43;347.17;;;166.55;;
36653;SDS011;22650;49.350;20.898;2023-08-06T02:19:17;455.52;;;179.82;;
36653;SDS011;22650;49.350;20.898;2023-08-06T02:21:51;394.85;;;174.57;;
36653;SDS011;22650;49.350;20.898;2023-08-06T02:24:27;415.65;;;183.95;;
36653;SDS011;22650;49.350;20.898;2023-08-06T02:27:01;456.27;;;185.90;;
36653;SDS011;22650;49.350;20.898;2023-08-06T02:29:34;444.83;;;177.95;;
36653;SDS011;22650;49.350;20.898;2023-08-06T02:32:08;453.17;;;189.40;;
36653;SDS011;22650;49.350;20.898;2023-08-06T02:34:42;455.00;;;192.10;;
36653;SDS011;22650;49.350;20.898;2023-08-06T02:37:16;391.35;;;170.95;;
36653;SDS011;22650;49.350;20.898;2023-08-06T02:39:51;410.23;;;177.98;;
36653;SDS011;22650;49.350;20.898;2023-08-06T02:42:25;419.73;;;178.93;;
36653;SDS011;22650;49.350;20.898;2023-08-06T02:44:58;399.90;;;176.85;;
36653;SDS011;22650;49.350;20.898;2023-08-06T02:47:33;404.67;;;170.07;;
36653;SDS011;22650;49.350;20.898;2023-08-06T02:50:07;360.98;;;171.95;;
36653;SDS011;22650;49.350;20.898;2023-08-06T02:52:40;389.80;;;183.93;;
36653;SDS011;22650;49.350;20.898;2023-08-06T02:55:16;417.45;;;186.90;;
36653;SDS011;22650;49.350;20.898;2023-08-06T02:57:52;464.98;;;185.80;;
36653;SDS011;22650;49.350;20.898;2023-08-06T03:00:26;368.92;;;181.65;;
36653;SDS011;22650;49.350;20.898;2023-08-06T03:02:59;379.05;;;177.10;;
36653;SDS011;22650;49.350;20.898;2023-08-06T03:05:52;390.35;;;180.68;;
36653;SDS011;22650;49.350;20.898;2023-08-06T03:08:36;423.52;;;183.00;;
36653;SDS011;22650;49.350;20.898;2023-08-06T03:11:11;375.75;;;176.75;;
36653;SDS011;22650;49.350;20.898;2023-08-06T03:13:46;403.98;;;190.00;;
36653;SDS011;22650;49.350;20.898;2023-08-06T03:16:21;366.33;;;179.43;;
36653;SDS011;22650;49.350;20.898;2023-08-06T03:18:54;394.50;;;194.05;;
36653;SDS011;22650;49.350;20.898;2023-08-06T03:21:28;388.95;;;195.57;;
36653;SDS011;22650;49.350;20.898;2023-08-06T03:24:02;462.83;;;182.93;;
36653;SDS011;22650;49.350;20.898;2023-08-06T03:26:40;442.38;;;197.30;;
36653;SDS011;22650;49.350;20.898;2023-08-06T03:29:15;415.00;;;195.68;;
36653;SDS011;22650;49.350;20.898;2023-08-06T03:31:49;472.30;;;205.98;;
36653;SDS011;22650;49.350;20.898;2023-08-06T03:34:25;457.48;;;219.20;;
36653;SDS011;22650;49.350;20.898;2023-08-06T03:36:59;423.88;;;198.93;;
36653;SDS011;22650;49.350;20.898;2023-08-06T03:39:32;483.85;;;210.77;;
36653;SDS011;22650;49.350;20.898;2023-08-06T03:42:08;441.52;;;204.05;;
36653;SDS011;22650;49.350;20.898;2023-08-06T03:44:42;383.58;;;198.02;;
36653;SDS011;22650;49.350;20.898;2023-08-06T03:47:15;377.20;;;177.48;;
36653;SDS011;22650;49.350;20.898;2023-08-06T03:49:52;374.90;;;184.82;;
36653;SDS011;22650;49.350;20.898;2023-08-06T03:52:26;434.48;;;190.43;;
36653;SDS011;22650;49.350;20.898;2023-08-06T03:55:00;402.85;;;188.05;;
36653;SDS011;22650;49.350;20.898;2023-08-06T03:57:35;356.35;;;185.30;;
36653;SDS011;22650;49.350;20.898;2023-08-06T04:00:09;379.38;;;177.20;;
36653;SDS011;22650;49.350;20.898;2023-08-06T04:02:46;451.08;;;195.65;;
36653;SDS011;22650;49.350;20.898;2023-08-06T04:05:21;447.35;;;198.23;;
36653;SDS011;22650;49.350;20.898;2023-08-06T04:07:54;414.80;;;206.85;;
36653;SDS011;22650;49.350;20.898;2023-08-06T04:10:28;413.65;;;173.10;;
36653;SDS011;22650;49.350;20.898;2023-08-06T04:13:03;429.60;;;192.27;;
36653;SDS011;22650;49.350;20.898;2023-08-06T04:15:36;401.20;;;192.23;;
36653;SDS011;22650;49.350;20.898;2023-08-06T04:18:10;489.33;;;202.38;;
36653;SDS011;22650;49.350;20.898;2023-08-06T04:20:44;492.58;;;213.98;;
36653;SDS011;22650;49.350;20.898;2023-08-06T04:23:18;489.73;;;195.10;;
36653;SDS011;22650;49.350;20.898;2023-08-06T04:25:55;449.63;;;194.68;;
36653;SDS011;22650;49.350;20.898;2023-08-06T04:28:34;436.80;;;190.88;;
36653;SDS011;22650;49.350;20.898;2023-08-06T04:31:08;528.35;;;219.93;;
36653;SDS011;22650;49.350;20.898;2023-08-06T04:33:43;524.35;;;214.65;;
36653;SDS011;22650;49.350;20.898;2023-08-06T04:36:19;636.20;;;254.60;;
36653;SDS011;22650;49.350;20.898;2023-08-06T04:38:53;563.13;;;224.23;;
36653;SDS011;22650;49.350;20.898;2023-08-06T04:41:27;553.03;;;219.45;;
36653;SDS011;22650;49.350;20.898;2023-08-06T04:44:02;617.85;;;258.13;;
36653;SDS011;22650;49.350;20.898;2023-08-06T04:46:36;428.38;;;204.27;;
36653;SDS011;22650;49.350;20.898;2023-08-06T04:49:10;469.05;;;212.15;;
36653;SDS011;22650;49.350;20.898;2023-08-06T04:51:43;504.80;;;202.20;;
36653;SDS011;22650;49.350;20.898;2023-08-06T04:54:17;576.30;;;225.75;;
36653;SDS011;22650;49.350;20.898;2023-08-06T04:56:50;496.77;;;219.30;;
36653;SDS011;22650;49.350;20.898;2023-08-06T04:59:25;543.10;;;210.13;;
36653;SDS011;22650;49.350;20.898;2023-08-06T05:01:59;441.70;;;197.27;;
36653;SDS011;22650;49.350;20.898;2023-08-06T05:04:32;460.08;;;213.70;;
36653;SDS011;22650;49.350;20.898;2023-08-06T05:07:06;542.85;;;204.82;;
36653;SDS011;22650;49.350;20.898;2023-08-06T05:09:39;555.38;;;247.88;;
36653;SDS011;22650;49.350;20.898;2023-08-06T05:12:14;498.73;;;218.98;;
36653;SDS011;22650;49.350;20.898;2023-08-06T05:14:49;541.38;;;215.98;;
36653;SDS011;22650;49.350;20.898;2023-08-06T05:17:22;580.83;;;249.52;;
36653;SDS011;22650;49.350;20.898;2023-08-06T05:19:56;550.60;;;231.43;;
36653;SDS011;22650;49.350;20.898;2023-08-06T05:22:29;547.03;;;228.32;;
36653;SDS011;22650;49.350;20.898;2023-08-06T05:25:03;680.20;;;253.07;;
36653;SDS011;22650;49.350;20.898;2023-08-06T05:27:38;556.03;;;235.75;;
36653;SDS011;22650;49.350;20.898;2023-08-06T05:30:13;450.65;;;201.48;;
36653;SDS011;22650;49.350;20.898;2023-08-06T05:32:46;469.17;;;207.68;;
36653;SDS011;22650;49.350;20.898;2023-08-06T05:35:20;440.15;;;192.50;;
36653;SDS011;22650;49.350;20.898;2023-08-06T05:37:54;404.05;;;194.88;;
36653;SDS011;22650;49.350;20.898;2023-08-06T05:40:27;462.27;;;224.80;;
36653;SDS011;22650;49.350;20.898;2023-08-06T05:43:01;499.25;;;226.13;;
36653;SDS011;22650;49.350;20.898;2023-08-06T05:45:36;534.50;;;237.65;;
36653;SDS011;22650;49.350;20.898;2023-08-06T05:48:10;526.15;;;230.15;;
36653;SDS011;22650;49.350;20.898;2023-08-06T05:50:43;656.15;;;270.25;;
36653;SDS011;22650;49.350;20.898;2023-08-06T05:53:17;631.13;;;269.48;;
36653;SDS011;22650;49.350;20.898;2023-08-06T05:55:50;624.10;;;261.35;;
36653;SDS011;22650;49.350;20.898;2023-08-06T05:58:24;451.58;;;202.88;;
36653;SDS011;22650;49.350;20.898;2023-08-06T06:01:02;570.22;;;221.40;;
36653;SDS011;22650;49.350;20.898;2023-08-06T06:03:35;565.67;;;242.73;;
36653;SDS011;22650;49.350;20.898;2023-08-06T06:06:09;608.05;;;252.18;;
36653;SDS011;22650;49.350;20.898;2023-08-06T06:08:44;660.25;;;287.05;;
36653;SDS011;22650;49.350;20.898;2023-08-06T06:11:17;644.75;;;286.95;;
36653;SDS011;22650;49.350;20.898;2023-08-06T06:13:53;574.05;;;265.30;;
36653;SDS011;22650;49.350;20.898;2023-08-06T06:16:28;790.65;;;337.90;;
36653;SDS011;22650;49.350;20.898;2023-08-06T06:19:02;795.13;;;362.52;;
36653;SDS011;22650;49.350;20.898;2023-08-06T06:21:35;1214.75;;;474.58;;
36653;SDS011;22650;49.350;20.898;2023-08-06T06:24:10;1762.95;;;650.45;;
36653;SDS011;22650;49.350;20.898;2023-08-06T06:26:44;1518.80;;;602.90;;
36653;SDS011;22650;49.350;20.898;2023-08-06T06:29:18;1749.00;;;680.67;;
36653;SDS011;22650;49.350;20.898;2023-08-06T06:31:53;1369.30;;;546.58;;
36653;SDS011;22650;49.350;20.898;2023-08-06T06:34:27;1999.90;;;999.90;;
36653;SDS011;22650;49.350;20.898;2023-08-06T06:37:00;1999.90;;;870.95;;
36653;SDS011;22650;49.350;20.898;2023-08-06T06:39:34;1602.93;;;655.25;;
36653;SDS011;22650;49.350;20.898;2023-08-06T06:42:07;1999.90;;;999.90;;
36653;SDS011;22650;49.350;20.898;2023-08-06T06:44:47;1999.90;;;999.90;;
36653;SDS011;22650;49.350;20.898;2023-08-06T06:47:22;1999.90;;;999.90;;
36653;SDS011;22650;49.350;20.898;2023-08-06T06:49:56;1999.90;;;999.90;;
36653;SDS011;22650;49.350;20.898;2023-08-06T06:52:29;1999.90;;;939.08;;
36653;SDS011;22650;49.350;20.898;2023-08-06T06:55:03;1999.90;;;984.88;;
36653;SDS011;22650;49.350;20.898;2023-08-06T06:57:37;1999.90;;;999.90;;
36653;SDS011;22650;49.350;20.898;2023-08-06T07:00:11;1999.90;;;999.90;;
36653;SDS011;22650;49.350;20.898;2023-08-06T07:02:46;1999.90;;;999.90;;
36653;SDS011;22650;49.350;20.898;2023-08-06T07:05:20;1999.90;;;999.90;;
36653;SDS011;22650;49.350;20.898;2023-08-06T07:07:53;1999.90;;;999.90;;
36653;SDS011;22650;49.350;20.898;2023-08-06T07:10:27;1999.90;;;999.90;;
36653;SDS011;22650;49.350;20.898;2023-08-06T07:13:01;1999.90;;;999.90;;
36653;SDS011;22650;49.350;20.898;2023-08-06T07:15:34;1999.90;;;999.90;;
36653;SDS011;22650;49.350;20.898;2023-08-06T07:18:09;1999.90;;;999.90;;
36653;SDS011;22650;49.350;20.898;2023-08-06T07:20:47;1999.90;;;999.90;;
36653;SDS011;22650;49.350;20.898;2023-08-06T07:23:23;1999.90;;;999.90;;
36653;SDS011;22650;49.350;20.898;2023-08-06T07:25:57;1999.90;;;999.90;;
36653;SDS011;22650;49.350;20.898;2023-08-06T07:28:30;1999.90;;;999.90;;
36653;SDS011;22650;49.350;20.898;2023-08-06T07:31:04;1999.90;;;999.90;;
36653;SDS011;22650;49.350;20.898;2023-08-06T07:33:41;1999.90;;;999.90;;
36653;SDS011;22650;49.350;20.898;2023-08-06T07:36:15;1999.90;;;999.90;;
36653;SDS011;22650;49.350;20.898;2023-08-06T07:38:48;1999.90;;;999.90;;
36653;SDS011;22650;49.350;20.898;2023-08-06T07:41:27;1999.90;;;999.90;;
36653;SDS011;22650;49.350;20.898;2023-08-06T07:44:01;1999.90;;;999.90;;
36653;SDS011;22650;49.350;20.898;2023-08-06T07:46:34;1999.90;;;999.90;;
36653;SDS011;22650;49.350;20.898;2023-08-06T07:49:09;1999.90;;;999.90;;
36653;SDS011;22650;49.350;20.898;2023-08-06T07:51:43;1999.90;;;999.90;;
36653;SDS011;22650;49.350;20.898;2023-08-06T07:54:17;1999.90;;;999.90;;
36653;SDS011;22650;49.350;20.898;2023-08-06T07:56:51;1999.90;;;999.90;;
36653;SDS011;22650;49.350;20.898;2023-08-06T07:59:24;1999.90;;;999.90;;
36653;SDS011;22650;49.350;20.898;2023-08-06T08:01:58;1999.90;;;999.90;;
36653;SDS011;22650;49.350;20.898;2023-08-06T08:04:33;1999.90;;;999.90;;
36653;SDS011;22650;49.350;20.898;2023-08-06T08:07:06;1999.90;;;999.90;;
36653;SDS011;22650;49.350;20.898;2023-08-06T08:09:42;1999.90;;;999.90;;
36653;SDS011;22650;49.350;20.898;2023-08-06T08:12:15;1999.90;;;999.90;;
36653;SDS011;22650;49.350;20.898;2023-08-06T08:14:49;1999.90;;;999.90;;
36653;SDS011;22650;49.350;20.898;2023-08-06T08:17:22;1999.90;;;999.90;;
36653;SDS011;22650;49.350;20.898;2023-08-06T08:19:57;1999.90;;;999.90;;
36653;SDS011;22650;49.350;20.898;2023-08-06T08:22:31;1999.90;;;999.90;;
36653;SDS011;22650;49.350;20.898;2023-08-06T08:25:05;1999.90;;;999.90;;
36653;SDS011;22650;49.350;20.898;2023-08-06T08:27:39;1999.90;;;999.90;;
36653;SDS011;22650;49.350;20.898;2023-08-06T08:30:12;1999.90;;;999.90;;
36653;SDS011;22650;49.350;20.898;2023-08-06T08:32:47;1999.90;;;999.90;;
36653;SDS011;22650;49.350;20.898;2023-08-06T08:35:22;1999.90;;;999.90;;
36653;SDS011;22650;49.350;20.898;2023-08-06T08:37:56;1999.90;;;999.90;;
36653;SDS011;22650;49.350;20.898;2023-08-06T08:40:30;1999.90;;;999.90;;
36653;SDS011;22650;49.350;20.898;2023-08-06T08:43:05;1999.90;;;999.90;;
36653;SDS011;22650;49.350;20.898;2023-08-06T08:45:39;1999.90;;;999.90;;
36653;SDS011;22650;49.350;20.898;2023-08-06T08:48:15;1999.90;;;999.90;;
36653;SDS011;22650;49.350;20.898;2023-08-06T08:50:52;1999.90;;;999.90;;
36653;SDS011;22650;49.350;20.898;2023-08-06T08:53:26;1999.90;;;999.90;;
36653;SDS011;22650;49.350;20.898;2023-08-06T08:56:00;1999.90;;;999.90;;
36653;SDS011;22650;49.350;20.898;2023-08-06T08:58:34;1999.90;;;999.90;;
36653;SDS011;22650;49.350;20.898;2023-08-06T09:01:08;1999.90;;;999.90;;
36653;SDS011;22650;49.350;20.898;2023-08-06T09:03:42;1999.90;;;999.90;;
36653;SDS011;22650;49.350;20.898;2023-08-06T09:06:18;1999.90;;;999.90;;
36653;SDS011;22650;49.350;20.898;2023-08-06T09:08:54;1999.90;;;999.90;;
36653;SDS011;22650;49.350;20.898;2023-08-06T09:11:39;1999.90;;;999.90;;
36653;SDS011;22650;49.350;20.898;2023-08-06T09:14:16;1999.90;;;999.90;;
36653;SDS011;22650;49.350;20.898;2023-08-06T09:16:50;1999.90;;;999.90;;
36653;SDS011;22650;49.350;20.898;2023-08-06T09:19:24;1999.90;;;999.90;;
36653;SDS011;22650;49.350;20.898;2023-08-06T09:22:01;1999.90;;;999.90;;
36653;SDS011;22650;49.350;20.898;2023-08-06T09:24:35;1999.90;;;999.00;;
36653;SDS011;22650;49.350;20.898;2023-08-06T09:27:12;1999.90;;;741.10;;
36653;SDS011;22650;49.350;20.898;2023-08-06T09:29:46;1999.90;;;578.80;;
36653;SDS011;22650;49.350;20.898;2023-08-06T09:32:20;1999.90;;;815.03;;
36653;SDS011;22650;49.350;20.898;2023-08-06T09:34:55;1999.90;;;963.33;;
36653;SDS011;22650;49.350;20.898;2023-08-06T09:37:36;1999.90;;;500.58;;
36653;SDS011;22650;49.350;20.898;2023-08-06T09:42:59;1999.90;;;250.57;;
36653;SDS011;22650;49.350;20.898;2023-08-06T09:45:37;1999.90;;;999.90;;
36653;SDS011;22650;49.350;20.898;2023-08-06T09:48:11;1999.90;;;730.95;;
36653;SDS011;22650;49.350;20.898;2023-08-06T09:50:45;1999.90;;;673.20;;
36653;SDS011;22650;49.350;20.898;2023-08-06T09:53:21;1999.90;;;451.83;;
36653;SDS011;22650;49.350;20.898;2023-08-06T09:55:55;1999.90;;;701.85;;
36653;SDS011;22650;49.350;20.898;2023-08-06T09:58:29;1999.90;;;999.90;;
36653;SDS011;22650;49.350;20.898;2023-08-06T10:01:04;1999.90;;;999.90;;
36653;SDS011;22650;49.350;20.898;2023-08-06T10:03:39;1999.90;;;390.23;;
36653;SDS011;22650;49.350;20.898;2023-08-06T10:06:13;1999.90;;;999.90;;
36653;SDS011;22650;49.350;20.898;2023-08-06T10:08:48;1999.90;;;999.90;;
36653;SDS011;22650;49.350;20.898;2023-08-06T10:11:22;1786.70;;;766.03;;
36653;SDS011;22650;49.350;20.898;2023-08-06T10:13:58;1999.90;;;999.90;;
36653;SDS011;22650;49.350;20.898;2023-08-06T10:16:36;1999.90;;;999.90;;
36653;SDS011;22650;49.350;20.898;2023-08-06T10:19:12;1999.90;;;999.90;;
36653;SDS011;22650;49.350;20.898;2023-08-06T10:24:46;1999.90;;;177.45;;
36653;SDS011;22650;49.350;20.898;2023-08-06T10:27:23;1999.90;;;999.90;;
36653;SDS011;22650;49.350;20.898;2023-08-06T10:35:29;1999.90;;;999.90;;
36653;SDS011;22650;49.350;20.898;2023-08-06T10:38:05;1999.90;;;999.90;;
36653;SDS011;22650;49.350;20.898;2023-08-06T10:40:42;1999.90;;;999.90;;
36653;SDS011;22650;49.350;20.898;2023-08-06T10:43:25;1999.90;;;999.90;;
36653;SDS011;22650;49.350;20.898;2023-08-06T10:46:01;1999.90;;;999.90;;
36653;SDS011;22650;49.350;20.898;2023-08-06T10:48:37;1999.90;;;999.90;;
36653;SDS011;22650;49.350;20.898;2023-08-06T10:51:12;1999.90;;;999.90;;
36653;SDS011;22650;49.350;20.898;2023-08-06T10:53:47;1999.90;;;999.90;;
36653;SDS011;22650;49.350;20.898;2023-08-06T10:56:23;1999.90;;;999.90;;
36653;SDS011;22650;49.350;20.898;2023-08-06T10:58:58;1999.90;;;999.90;;
36653;SDS011;22650;49.350;20.898;2023-08-06T11:01:32;1999.90;;;999.90;;
36653;SDS011;22650;49.350;20.898;2023-08-06T11:04:07;1999.90;;;999.90;;
36653;SDS011;22650;49.350;20.898;2023-08-06T11:06:51;1999.90;;;999.90;;
36653;SDS011;22650;49.350;20.898;2023-08-06T11:09:25;1999.90;;;999.90;;
36653;SDS011;22650;49.350;20.898;2023-08-06T11:12:00;1999.90;;;999.90;;
36653;SDS011;22650;49.350;20.898;2023-08-06T11:14:34;1999.90;;;999.90;;
36653;SDS011;22650;49.350;20.898;2023-08-06T11:17:08;1999.90;;;999.90;;
36653;SDS011;22650;49.350;20.898;2023-08-06T11:19:42;1999.90;;;999.90;;
36653;SDS011;22650;49.350;20.898;2023-08-06T11:22:16;1999.90;;;999.90;;
36653;SDS011;22650;49.350;20.898;2023-08-06T11:24:50;1999.90;;;999.90;;
36653;SDS011;22650;49.350;20.898;2023-08-06T11:27:27;1999.90;;;999.90;;
36653;SDS011;22650;49.350;20.898;2023-08-06T11:30:01;1999.90;;;999.90;;
36653;SDS011;22650;49.350;20.898;2023-08-06T11:32:44;1999.90;;;999.90;;
36653;SDS011;22650;49.350;20.898;2023-08-06T11:35:19;1999.90;;;999.90;;
36653;SDS011;22650;49.350;20.898;2023-08-06T11:37:52;1999.90;;;999.90;;
36653;SDS011;22650;49.350;20.898;2023-08-06T11:40:27;1999.90;;;999.90;;
36653;SDS011;22650;49.350;20.898;2023-08-06T11:43:02;1999.90;;;999.90;;
36653;SDS011;22650;49.350;20.898;2023-08-06T11:45:36;1999.90;;;999.90;;
36653;SDS011;22650;49.350;20.898;2023-08-06T11:48:10;1999.90;;;999.90;;
36653;SDS011;22650;49.350;20.898;2023-08-06T11:50:46;1999.90;;;999.90;;
36653;SDS011;22650;49.350;20.898;2023-08-06T11:53:19;1999.90;;;999.90;;
36653;SDS011;22650;49.350;20.898;2023-08-06T11:55:53;1999.90;;;999.90;;
36653;SDS011;22650;49.350;20.898;2023-08-06T11:58:28;1999.90;;;999.90;;
36653;SDS011;22650;49.350;20.898;2023-08-06T12:01:02;1999.90;;;999.90;;
36653;SDS011;22650;49.350;20.898;2023-08-06T12:03:38;1999.90;;;999.90;;
36653;SDS011;22650;49.350;20.898;2023-08-06T12:06:12;1999.90;;;999.90;;
36653;SDS011;22650;49.350;20.898;2023-08-06T12:08:46;1999.90;;;999.90;;
36653;SDS011;22650;49.350;20.898;2023-08-06T12:11:20;1999.90;;;999.90;;
36653;SDS011;22650;49.350;20.898;2023-08-06T12:13:58;1999.90;;;999.90;;
36653;SDS011;22650;49.350;20.898;2023-08-06T12:16:35;1999.90;;;999.90;;
36653;SDS011;22650;49.350;20.898;2023-08-06T12:19:09;1999.90;;;999.90;;
36653;SDS011;22650;49.350;20.898;2023-08-06T12:21:42;1999.90;;;999.90;;
36653;SDS011;22650;49.350;20.898;2023-08-06T12:24:16;1999.90;;;999.90;;
36653;SDS011;22650;49.350;20.898;2023-08-06T12:26:50;1999.90;;;999.90;;
36653;SDS011;22650;49.350;20.898;2023-08-06T12:29:31;1999.90;;;999.90;;
36653;SDS011;22650;49.350;20.898;2023-08-06T12:32:04;1999.90;;;999.90;;
36653;SDS011;22650;49.350;20.898;2023-08-06T12:34:38;1999.90;;;999.90;;
36653;SDS011;22650;49.350;20.898;2023-08-06T12:37:23;1999.90;;;999.90;;
36653;SDS011;22650;49.350;20.898;2023-08-06T12:39:57;1999.90;;;999.90;;
36653;SDS011;22650;49.350;20.898;2023-08-06T12:42:50;1999.90;;;999.90;;
36653;SDS011;22650;49.350;20.898;2023-08-06T12:45:25;1999.90;;;999.90;;
36653;SDS011;22650;49.350;20.898;2023-08-06T12:47:59;1999.90;;;999.90;;
36653;SDS011;22650;49.350;20.898;2023-08-06T12:50:33;1999.90;;;999.90;;
36653;SDS011;22650;49.350;20.898;2023-08-06T12:53:08;1999.90;;;999.90;;
36653;SDS011;22650;49.350;20.898;2023-08-06T12:55:42;1999.90;;;999.90;;
36653;SDS011;22650;49.350;20.898;2023-08-06T12:58:16;1999.90;;;999.90;;
36653;SDS011;22650;49.350;20.898;2023-08-06T13:00:51;1999.90;;;999.90;;
36653;SDS011;22650;49.350;20.898;2023-08-06T13:03:26;1999.90;;;999.90;;
36653;SDS011;22650;49.350;20.898;2023-08-06T13:06:04;1999.90;;;999.90;;
36653;SDS011;22650;49.350;20.898;2023-08-06T13:08:37;1999.90;;;999.90;;
36653;SDS011;22650;49.350;20.898;2023-08-06T13:11:11;1999.90;;;999.90;;
36653;SDS011;22650;49.350;20.898;2023-08-06T13:13:45;1999.90;;;999.90;;
36653;SDS011;22650;49.350;20.898;2023-08-06T13:16:20;1999.90;;;999.90;;
36653;SDS011;22650;49.350;20.898;2023-08-06T13:18:53;1999.90;;;999.90;;
36653;SDS011;22650;49.350;20.898;2023-08-06T13:21:35;1999.90;;;999.90;;
36653;SDS011;22650;49.350;20.898;2023-08-06T13:24:24;1999.90;;;999.90;;
36653;SDS011;22650;49.350;20.898;2023-08-06T13:26:59;1999.90;;;999.90;;
36653;SDS011;22650;49.350;20.898;2023-08-06T13:29:32;1999.90;;;999.90;;
36653;SDS011;22650;49.350;20.898;2023-08-06T13:32:07;1999.90;;;999.90;;
36653;SDS011;22650;49.350;20.898;2023-08-06T13:34:41;1999.90;;;999.90;;
36653;SDS011;22650;49.350;20.898;2023-08-06T13:37:15;1999.90;;;999.90;;
36653;SDS011;22650;49.350;20.898;2023-08-06T13:39:48;1999.90;;;999.90;;
36653;SDS011;22650;49.350;20.898;2023-08-06T13:42:22;1999.90;;;999.90;;
36653;SDS011;22650;49.350;20.898;2023-08-06T13:44:56;1999.90;;;999.90;;
36653;SDS011;22650;49.350;20.898;2023-08-06T13:47:35;1999.90;;;999.90;;
36653;SDS011;22650;49.350;20.898;2023-08-06T13:50:09;1999.90;;;999.90;;
36653;SDS011;22650;49.350;20.898;2023-08-06T13:53:02;1999.90;;;999.90;;
36653;SDS011;22650;49.350;20.898;2023-08-06T13:55:36;1999.90;;;999.90;;
36653;SDS011;22650;49.350;20.898;2023-08-06T13:58:09;1999.90;;;999.90;;
36653;SDS011;22650;49.350;20.898;2023-08-06T14:00:43;1999.90;;;999.90;;
36653;SDS011;22650;49.350;20.898;2023-08-06T14:03:19;1999.90;;;999.90;;
36653;SDS011;22650;49.350;20.898;2023-08-06T14:05:53;1999.90;;;999.90;;
36653;SDS011;22650;49.350;20.898;2023-08-06T14:08:28;1999.90;;;999.90;;
36653;SDS011;22650;49.350;20.898;2023-08-06T14:11:01;1999.90;;;999.90;;
36653;SDS011;22650;49.350;20.898;2023-08-06T14:13:36;1999.90;;;999.90;;
36653;SDS011;22650;49.350;20.898;2023-08-06T14:16:10;1999.90;;;999.90;;
36653;SDS011;22650;49.350;20.898;2023-08-06T14:18:45;1999.90;;;999.90;;
36653;SDS011;22650;49.350;20.898;2023-08-06T14:21:18;1999.90;;;999.90;;
36653;SDS011;22650;49.350;20.898;2023-08-06T14:23:52;1999.90;;;999.90;;
36653;SDS011;22650;49.350;20.898;2023-08-06T14:26:26;1999.90;;;999.90;;
36653;SDS011;22650;49.350;20.898;2023-08-06T14:29:00;1999.90;;;999.90;;
36653;SDS011;22650;49.350;20.898;2023-08-06T14:31:34;1999.90;;;999.90;;
36653;SDS011;22650;49.350;20.898;2023-08-06T14:34:09;1999.90;;;999.90;;